Time;durP1;ratioP1;P1;durP2;ratioP2;P2;SDS_P1;SDS_P2;PMS_P1;PMS_P2;Temp;Humidity;BMP_temperature;BMP_pressure;BME280_temperature;BME280_humidity;BME280_pressure;Samples;Min_cycle;Max_cycle;Signal;HPM_P1;HPM_P2
2022/08/22 00:02:33;;;;;;;6.20;0.80;;;19.30;99.90;;;;;;4978224;28;20073;-69
2022/08/22 00:05:11;;;;;;;5.15;1.40;;;19.40;99.90;;;;;;4980078;28;20060;-69
2022/08/22 00:07:42;;;;;;;5.28;0.95;;;19.30;99.90;;;;;;4981698;28;20034;-71
2022/08/22 00:10:19;;;;;;;5.70;0.73;;;19.20;99.90;;;;;;4977506;28;20070;-69
2022/08/22 00:12:57;;;;;;;6.25;0.93;;;19.30;99.90;;;;;;4979674;28;20061;-71
2022/08/22 00:15:30;;;;;;;9.82;1.10;;;19.20;99.90;;;;;;4979350;28;20090;-71
2022/08/22 00:18:11;;;;;;;4.35;0.85;;;19.20;99.90;;;;;;4982545;28;20031;-70
2022/08/22 00:20:45;;;;;;;5.50;0.90;;;19.20;99.90;;;;;;4988281;28;20409;-70
2022/08/22 00:23:21;;;;;;;4.78;0.80;;;19.10;99.90;;;;;;4978336;28;20113;-70
2022/08/22 00:26:20;;;;;;;5.65;1.02;;;19.10;99.90;;;;;;4986865;28;20517;-70
2022/08/22 00:28:52;;;;;;;4.90;0.80;;;19.10;99.90;;;;;;4999879;28;20035;-71
2022/08/22 00:31:20;;;;;;;3.72;1.45;;;19.10;99.90;;;;;;4976700;28;20042;-70
2022/08/22 00:34:28;;;;;;;4.03;0.70;;;19.00;99.90;;;;;;5010628;28;20042;-70
2022/08/22 00:37:14;;;;;;;4.38;1.00;;;19.00;99.90;;;;;;4975073;28;20050;-71
2022/08/22 00:40:02;;;;;;;4.63;1.25;;;19.00;99.90;;;;;;4978550;28;20576;-71
2022/08/22 00:43:03;;;;;;;3.10;0.77;;;19.00;99.90;;;;;;4978564;28;20030;-70
2022/08/22 00:45:35;;;;;;;5.32;1.15;;;18.90;99.90;;;;;;4998464;28;20065;-71
2022/08/22 00:48:22;;;;;;;1.75;0.70;;;18.90;99.90;;;;;;4977644;28;20034;-69
2022/08/22 00:51:26;;;;;;;3.90;0.98;;;18.90;99.90;;;;;;4982967;28;20045;-71
2022/08/22 00:53:59;;;;;;;5.32;0.80;;;18.90;99.90;;;;;;4978793;28;20038;-70
2022/08/22 00:56:41;;;;;;;5.45;0.73;;;18.90;99.90;;;;;;4975189;28;20053;-70
2022/08/22 00:59:40;;;;;;;5.28;1.10;;;18.90;99.90;;;;;;4980288;28;20075;-70
2022/08/22 01:02:26;;;;;;;4.13;0.65;;;18.80;99.90;;;;;;4998973;28;20125;-75
2022/08/22 01:05:30;;;;;;;4.78;0.80;;;18.80;99.90;;;;;;4979143;28;20046;-72
2022/08/22 01:08:33;;;;;;;5.30;0.95;;;18.80;99.90;;;;;;5010126;28;20569;-72
2022/08/22 01:11:26;;;;;;;3.47;0.70;;;18.80;99.90;;;;;;4996123;28;20146;-71
2022/08/22 01:14:01;;;;;;;3.28;0.73;;;18.80;99.90;;;;;;4982919;28;20061;-72
2022/08/22 01:16:39;;;;;;;4.25;0.70;;;18.70;99.90;;;;;;4984109;28;20038;-72
2022/08/22 01:19:34;;;;;;;6.15;0.95;;;18.70;99.90;;;;;;4982997;28;20042;-72
2022/08/22 01:22:09;;;;;;;5.82;0.90;;;18.70;99.90;;;;;;4984271;28;20041;-72
2022/08/22 01:25:17;;;;;;;6.78;0.90;;;18.70;99.90;;;;;;5007664;28;20030;-71
2022/08/22 01:28:02;;;;;;;4.05;0.82;;;18.70;99.90;;;;;;4987320;28;20053;-70
2022/08/22 01:30:27;;;;;;;7.97;1.20;;;18.70;99.90;;;;;;4982351;28;20058;-71
2022/08/22 01:33:11;;;;;;;4.90;0.80;;;18.70;99.90;;;;;;5006851;28;20119;-72
2022/08/22 01:36:19;;;;;;;5.18;0.98;;;18.70;99.90;;;;;;4979918;28;20394;-72
2022/08/22 01:39:15;;;;;;;3.22;0.80;;;18.70;99.90;;;;;;5008146;28;20054;-71
2022/08/22 01:41:58;;;;;;;5.88;0.77;;;18.70;99.90;;;;;;4966853;28;20097;-71
2022/08/22 01:44:50;;;;;;;3.88;0.93;;;18.70;99.90;;;;;;4975752;28;20067;-71
2022/08/22 01:47:25;;;;;;;5.10;0.90;;;18.70;99.90;;;;;;4976390;28;20121;-74
2022/08/22 01:50:07;;;;;;;4.40;0.88;;;18.70;99.90;;;;;;4974495;28;20066;-71
2022/08/22 01:52:44;;;;;;;4.07;1.30;;;18.60;99.90;;;;;;4977704;28;20054;-71
2022/08/22 01:55:21;;;;;;;4.28;0.80;;;18.60;99.90;;;;;;4981240;28;20042;-72
2022/08/22 01:57:57;;;;;;;13.45;1.23;;;18.60;99.90;;;;;;4992632;28;20052;-69
2022/08/22 02:00:24;;;;;;;4.78;1.30;;;18.60;99.90;;;;;;4986299;28;20031;-69
2022/08/22 02:03:26;;;;;;;5.45;1.15;;;18.60;99.90;;;;;;4980238;28;20023;-71
2022/08/22 02:06:03;;;;;;;4.00;0.80;;;18.50;99.90;;;;;;4974609;28;20034;-72
2022/08/22 02:08:42;;;;;;;5.53;1.50;;;18.50;99.90;;;;;;4969490;28;20069;-71
2022/08/22 02:11:10;;;;;;;6.68;0.85;;;18.50;99.90;;;;;;4976026;28;20070;-69
2022/08/22 02:13:48;;;;;;;3.63;0.93;;;18.50;99.90;;;;;;4976528;28;20037;-69
2022/08/22 02:16:35;;;;;;;3.13;0.77;;;18.50;99.90;;;;;;4976568;28;20490;-70
2022/08/22 02:19:10;;;;;;;4.50;0.70;;;18.50;99.90;;;;;;4979271;28;20042;-71
2022/08/22 02:21:52;;;;;;;6.65;0.80;;;18.40;99.90;;;;;;4975846;28;20043;-70
2022/08/22 02:24:21;;;;;;;6.07;1.13;;;18.50;99.90;;;;;;4977087;28;20046;-68
2022/08/22 02:27:03;;;;;;;3.50;0.90;;;18.40;99.90;;;;;;4984339;28;20170;-71
2022/08/22 02:29:49;;;;;;;6.38;2.05;;;18.40;99.90;;;;;;4978634;28;20149;-71
2022/08/22 02:32:39;;;;;;;5.70;1.17;;;18.50;99.90;;;;;;4980927;28;20038;-70
2022/08/22 02:35:08;;;;;;;;;;;18.40;99.90;;;;;;4986624;28;20034;-70
2022/08/22 02:37:47;;;;;;;2.60;0.68;;;18.40;99.90;;;;;;4978943;28;19914;-69
2022/08/22 02:40:29;;;;;;;2.55;0.75;;;18.40;99.90;;;;;;4974203;28;20310;-71
2022/08/22 02:43:06;;;;;;;6.07;1.38;;;18.40;99.90;;;;;;4977144;28;20030;-70
2022/08/22 02:45:57;;;;;;;3.70;1.10;;;18.40;99.90;;;;;;4998074;28;20372;-71
2022/08/22 02:48:46;;;;;;;3.80;1.52;;;18.40;99.90;;;;;;4978444;28;20037;-71
2022/08/22 02:51:38;;;;;;;5.97;1.05;;;18.50;99.90;;;;;;4978349;28;20062;-70
2022/08/22 02:54:13;;;;;;;7.20;1.42;;;18.40;99.90;;;;;;4975621;28;20042;-70
2022/08/22 02:56:47;;;;;;;6.80;1.15;;;18.40;99.90;;;;;;4980244;28;20050;-70
2022/08/22 02:59:19;;;;;;;5.45;1.00;;;18.40;99.90;;;;;;4980173;28;20621;-69
2022/08/22 03:01:47;;;;;;;12.23;1.65;;;18.40;99.90;;;;;;4986250;28;20034;-71
2022/08/22 03:04:45;;;;;;;8.43;1.13;;;18.40;99.90;;;;;;4980908;28;20059;-69
2022/08/22 03:07:28;;;;;;;2.45;0.70;;;18.30;99.90;;;;;;4984554;28;20416;-70
2022/08/22 03:10:22;;;;;;;5.65;1.05;;;18.30;99.90;;;;;;4983683;28;20178;-69
2022/08/22 03:12:53;;;;;;;2.25;1.15;;;18.30;99.90;;;;;;4985754;28;20058;-71
2022/08/22 03:15:35;;;;;;;6.97;0.80;;;18.30;99.90;;;;;;4980951;28;20035;-70
2022/08/22 03:18:20;;;;;;;3.22;1.20;;;18.30;99.90;;;;;;4984596;28;20035;-69
2022/08/22 03:21:08;;;;;;;4.68;0.90;;;18.20;99.90;;;;;;4983633;28;20530;-71
2022/08/22 03:24:10;;;;;;;4.53;0.90;;;18.20;99.90;;;;;;5007361;28;20124;-72
2022/08/22 03:26:55;;;;;;;5.70;0.90;;;18.20;99.90;;;;;;5022763;28;20192;-70
2022/08/22 03:29:29;;;;;;;5.40;1.10;;;18.20;99.90;;;;;;4991801;28;20034;-69
2022/08/22 03:32:19;;;;;;;8.23;1.40;;;18.10;99.90;;;;;;4990349;28;20049;-71
2022/08/22 03:35:07;;;;;;;3.55;1.02;;;18.10;99.90;;;;;;4983684;28;20038;-71
2022/08/22 03:37:36;;;;;;;2.90;0.77;;;18.10;99.90;;;;;;5004778;28;20035;-71
2022/08/22 03:40:20;;;;;;;5.10;0.87;;;18.00;99.90;;;;;;4985118;28;20566;-71
2022/08/22 03:43:17;;;;;;;2.95;0.77;;;18.00;99.90;;;;;;4995649;28;20101;-71
2022/08/22 03:46:06;;;;;;;5.75;0.85;;;18.00;99.90;;;;;;4996918;28;20047;-72
2022/08/22 03:48:59;;;;;;;7.38;1.20;;;18.00;99.90;;;;;;5000742;28;20510;-72
2022/08/22 03:51:37;;;;;;;6.35;1.58;;;18.10;99.90;;;;;;4990548;28;20042;-71
2022/08/22 03:54:21;;;;;;;6.45;0.98;;;18.00;99.90;;;;;;4986736;28;20053;-71
2022/08/22 03:56:58;;;;;;;5.18;1.23;;;18.00;99.90;;;;;;4983796;28;20034;-71
2022/08/22 03:59:49;;;;;;;4.70;0.82;;;18.00;99.90;;;;;;4983716;28;20049;-71
2022/08/22 04:02:58;;;;;;;4.10;0.98;;;18.00;99.90;;;;;;4981941;28;20048;-70
2022/08/22 04:05:52;;;;;;;2.92;1.38;;;18.00;99.90;;;;;;4996283;28;20125;-70
2022/08/22 04:09:12;;;;;;;3.42;0.85;;;18.00;99.90;;;;;;4979331;28;20069;-71
2022/08/22 04:11:59;;;;;;;8.25;1.05;;;18.00;99.90;;;;;;4991933;28;20105;-71
2022/08/22 04:15:07;;;;;;;5.45;1.23;;;18.00;99.90;;;;;;4979814;28;20042;-71
2022/08/22 04:17:41;;;;;;;2.90;0.82;;;17.90;99.90;;;;;;4976335;28;20053;-71
2022/08/22 04:20:50;;;;;;;13.32;1.60;;;17.90;99.90;;;;;;4978707;28;20065;-71
2022/08/22 04:23:30;;;;;;;4.65;0.95;;;17.90;99.90;;;;;;4970772;28;20058;-71
2022/08/22 04:25:59;;;;;;;;;;;17.90;99.90;;;;;;4987923;28;20129;-70
2022/08/22 04:28:33;;;;;;;3.70;0.95;;;17.90;99.90;;;;;;4977258;28;19969;-69
2022/08/22 04:31:02;;;;;;;4.00;1.02;;;17.90;99.90;;;;;;4978933;28;20113;-71
2022/08/22 04:33:44;;;;;;;3.17;0.93;;;17.90;99.90;;;;;;4976497;28;20885;-71
2022/08/22 04:36:33;;;;;;;4.50;1.27;;;17.90;99.90;;;;;;4976017;28;20038;-71
2022/08/22 04:39:07;;;;;;;2.28;1.10;;;17.90;99.90;;;;;;4987019;28;20057;-71
2022/08/22 04:41:54;;;;;;;3.00;1.00;;;17.90;99.90;;;;;;4981357;28;20039;-70
2022/08/22 04:44:26;;;;;;;5.03;0.90;;;17.90;99.90;;;;;;4985658;28;20403;-71
2022/08/22 04:47:16;;;;;;;4.15;1.20;;;17.90;99.90;;;;;;4981469;28;20141;-71
2022/08/22 04:49:53;;;;;;;3.88;1.00;;;18.00;99.90;;;;;;4983479;28;20042;-70
2022/08/22 04:52:34;;;;;;;6.35;1.38;;;18.00;99.90;;;;;;4981575;28;20117;-69
2022/08/22 04:55:28;;;;;;;3.42;1.10;;;18.00;99.90;;;;;;4981609;28;20065;-70
2022/08/22 04:58:18;;;;;;;4.28;0.80;;;18.00;99.90;;;;;;4980669;28;20048;-70
2022/08/22 05:01:08;;;;;;;9.02;2.33;;;18.10;99.90;;;;;;4982906;28;20104;-69
2022/08/22 05:03:40;;;;;;;5.55;0.95;;;18.00;99.90;;;;;;4986703;28;20062;-71
2022/08/22 05:06:07;;;;;;;4.18;1.05;;;18.00;99.90;;;;;;4988765;28;20031;-71
2022/08/22 05:08:36;;;;;;;3.42;0.90;;;18.00;99.90;;;;;;5020018;28;20041;-70
2022/08/22 05:11:04;;;;;;;4.88;1.15;;;18.00;99.90;;;;;;4982967;28;20046;-71
2022/08/22 05:13:52;;;;;;;6.22;0.95;;;18.00;99.90;;;;;;4981565;28;20129;-71
2022/08/22 05:16:23;;;;;;;6.93;1.17;;;18.10;99.90;;;;;;4978201;28;20049;-69
2022/08/22 05:18:53;;;;;;;5.70;1.10;;;18.10;99.90;;;;;;5014584;28;20049;-70
2022/08/22 05:21:23;;;;;;;13.07;1.40;;;18.10;99.90;;;;;;4983342;28;20042;-71
2022/08/22 05:23:56;;;;;;;5.25;0.80;;;18.10;99.90;;;;;;4986467;28;20060;-71
2022/08/22 05:26:22;;;;;;;7.50;0.90;;;18.10;99.90;;;;;;4995818;28;20515;-70
2022/08/22 05:28:53;;;;;;;5.93;1.27;;;18.10;99.90;;;;;;5003512;28;20030;-71
2022/08/22 05:31:30;;;;;;;3.33;0.95;;;18.20;99.90;;;;;;4999575;28;20038;-71
2022/08/22 05:34:10;;;;;;;5.30;1.60;;;18.20;99.90;;;;;;4983437;28;20092;-70
2022/08/22 05:36:41;;;;;;;10.93;1.13;;;18.20;99.90;;;;;;4983046;28;20034;-70
2022/08/22 05:39:12;;;;;;;7.32;1.38;;;18.30;99.90;;;;;;4981764;28;20528;-70
2022/08/22 05:41:40;;;;;;;3.05;1.02;;;18.30;99.90;;;;;;4982721;28;20043;-69
2022/08/22 05:44:26;;;;;;;9.60;1.17;;;18.30;99.90;;;;;;4979065;28;20045;-70
2022/08/22 05:47:00;;;;;;;8.48;0.95;;;18.30;99.90;;;;;;4977829;28;20498;-72
2022/08/22 05:49:43;;;;;;;6.20;1.08;;;18.30;99.90;;;;;;4979066;28;20041;-69
2022/08/22 05:52:33;;;;;;;2.80;0.90;;;18.30;99.90;;;;;;4979890;28;20053;-70
2022/08/22 05:55:13;;;;;;;5.13;1.43;;;18.30;99.90;;;;;;4981142;28;20762;-71
2022/08/22 05:57:45;;;;;;;5.38;1.13;;;18.40;99.90;;;;;;4980282;28;20073;-71
2022/08/22 06:00:15;;;;;;;5.35;1.17;;;18.40;99.90;;;;;;4981034;28;20126;-69
2022/08/22 06:03:14;;;;;;;3.58;1.25;;;18.40;99.90;;;;;;4979368;28;20889;-69
2022/08/22 06:05:45;;;;;;;7.45;1.80;;;18.50;99.90;;;;;;4981700;28;20034;-69
2022/08/22 06:08:30;;;;;;;4.60;0.95;;;18.50;99.90;;;;;;4977686;28;20654;-70
2022/08/22 06:11:02;;;;;;;5.15;1.50;;;18.50;99.90;;;;;;4979032;28;20050;-69
2022/08/22 06:13:44;;;;;;;4.05;0.95;;;18.50;99.90;;;;;;4978948;28;20038;-70
2022/08/22 06:16:27;;;;;;;3.65;1.35;;;18.60;99.90;;;;;;4979869;28;20046;-72
2022/08/22 06:18:54;;;;;;;8.00;1.60;;;18.60;99.90;;;;;;4983937;28;20839;-70
2022/08/22 06:21:30;;;;;;;8.23;1.83;;;18.70;99.90;;;;;;4980632;28;20052;-70
2022/08/22 06:23:59;;;;;;;6.55;1.60;;;18.70;99.90;;;;;;4979138;28;20038;-71
2022/08/22 06:26:29;;;;;;;7.57;1.15;;;18.70;99.90;;;;;;4981096;28;20037;-71
2022/08/22 06:28:59;;;;;;;4.88;1.45;;;18.80;99.90;;;;;;4982028;28;20134;-70
2022/08/22 06:31:44;;;;;;;9.32;1.58;;;18.80;99.90;;;;;;4978175;28;20109;-69
2022/08/22 06:34:22;;;;;;;3.65;1.00;;;18.80;99.90;;;;;;4979266;28;20097;-70
2022/08/22 06:36:50;;;;;;;6.00;1.77;;;18.80;99.90;;;;;;4978064;28;20054;-70
2022/08/22 06:39:15;;;;;;;7.65;1.33;;;18.80;99.90;;;;;;4974875;28;20038;-72
2022/08/22 06:41:48;;;;;;;8.40;1.92;;;18.80;99.90;;;;;;4974338;28;20080;-70
2022/08/22 06:44:18;;;;;;;6.97;1.90;;;18.80;99.90;;;;;;5007053;28;20060;-68
2022/08/22 06:46:47;;;;;;;7.10;1.20;;;18.90;99.90;;;;;;4973367;28;20027;-71
2022/08/22 06:49:13;;;;;;;4.65;1.02;;;18.90;99.90;;;;;;4974874;28;20057;-69
2022/08/22 06:51:40;;;;;;;3.58;1.40;;;19.10;99.90;;;;;;4983424;28;20039;-70
2022/08/22 06:54:15;;;;;;;7.05;1.95;;;19.80;99.90;;;;;;4972962;28;20038;-71
2022/08/22 06:56:45;;;;;;;4.32;1.23;;;20.20;99.90;;;;;;4977144;28;20037;-70
2022/08/22 06:59:16;;;;;;;5.27;1.50;;;20.60;99.90;;;;;;4977519;28;20034;-70
2022/08/22 07:02:08;;;;;;;5.20;1.60;;;20.80;99.90;;;;;;4977449;28;20380;-70
2022/08/22 07:04:35;;;;;;;4.07;1.10;;;20.80;99.90;;;;;;4975399;28;20094;-70
2022/08/22 07:07:01;;;;;;;9.13;1.30;;;20.60;99.90;;;;;;4974227;28;20061;-71
2022/08/22 07:09:33;;;;;;;3.05;0.90;;;20.40;99.90;;;;;;4975501;28;20483;-71
2022/08/22 07:12:02;;;;;;;9.77;1.15;;;20.30;99.90;;;;;;4972851;28;20043;-70
2022/08/22 07:14:39;;;;;;;8.48;1.27;;;20.10;99.90;;;;;;4976924;28;20027;-69
2022/08/22 07:17:08;;;;;;;4.88;1.33;;;20.00;99.90;;;;;;4976704;28;20046;-72
2022/08/22 07:19:40;;;;;;;6.05;1.50;;;20.00;99.90;;;;;;4980631;28;20045;-70
2022/08/22 07:22:21;;;;;;;4.85;1.42;;;20.20;99.90;;;;;;4974943;28;20046;-71
2022/08/22 07:24:51;;;;;;;5.70;1.50;;;20.40;99.90;;;;;;4976400;28;20498;-72
2022/08/22 07:27:38;;;;;;;3.53;1.15;;;20.70;99.90;;;;;;5007247;28;20105;-71
2022/08/22 07:30:10;;;;;;;9.95;1.95;;;20.90;99.90;;;;;;4973737;28;20039;-71
2022/08/22 07:32:40;;;;;;;7.45;2.13;;;20.90;99.90;;;;;;4973698;28;20045;-72
2022/08/22 07:35:27;;;;;;;6.35;1.63;;;20.90;99.90;;;;;;4977143;28;20548;-73
2022/08/22 07:37:59;;;;;;;8.25;1.63;;;20.90;99.90;;;;;;4975955;28;20026;-73
2022/08/22 07:40:40;;;;;;;6.88;1.77;;;21.00;99.90;;;;;;4975010;28;20105;-71
2022/08/22 07:43:12;;;;;;;6.75;2.08;;;21.10;99.90;;;;;;4980130;28;20027;-70
2022/08/22 07:45:52;;;;;;;6.63;1.48;;;21.10;99.90;;;;;;4980956;28;20495;-72
2022/08/22 07:48:57;;;;;;;7.65;1.50;;;21.20;99.90;;;;;;4979777;28;20030;-72
2022/08/22 07:51:35;;;;;;;4.88;1.65;;;21.30;99.90;;;;;;4977976;28;20046;-72
2022/08/22 07:54:06;;;;;;;5.70;1.30;;;21.30;99.90;;;;;;4979045;28;20076;-72
2022/08/22 07:56:41;;;;;;;4.80;1.30;;;21.30;99.90;;;;;;4975239;28;20031;-70
2022/08/22 07:59:12;;;;;;;6.47;1.40;;;21.40;99.90;;;;;;4978899;28;20038;-73
2022/08/22 08:01:44;;;;;;;10.25;1.52;;;21.40;99.90;;;;;;4980650;28;20042;-69
2022/08/22 08:04:15;;;;;;;5.03;1.20;;;21.40;99.90;;;;;;4979714;28;20040;-70
2022/08/22 08:06:41;;;;;;;4.82;1.00;;;21.50;99.90;;;;;;5008449;28;20035;-70
2022/08/22 08:09:14;;;;;;;8.02;1.67;;;21.50;99.90;;;;;;4979826;28;20093;-70
2022/08/22 08:11:42;;;;;;;9.35;1.48;;;21.60;99.90;;;;;;4979225;28;20038;-69
2022/08/22 08:14:12;;;;;;;4.57;1.23;;;21.80;99.90;;;;;;4982304;28;20832;-70
2022/08/22 08:16:56;;;;;;;7.38;1.20;;;21.80;99.90;;;;;;4983689;28;20031;-70
2022/08/22 08:19:23;;;;;;;6.15;1.48;;;22.00;99.90;;;;;;4977085;28;20128;-70
2022/08/22 08:21:52;;;;;;;5.20;1.25;;;22.00;99.90;;;;;;4976781;28;20118;-70
2022/08/22 08:24:52;;;;;;;3.92;1.00;;;22.10;99.90;;;;;;4976573;28;20077;-70
2022/08/22 08:30:33;;;;;;;7.13;2.08;;;22.20;99.90;;;;;;4979100;28;20545;-69
2022/08/22 08:33:00;;;;;;;2.97;1.20;;;22.30;99.90;;;;;;4975195;28;20067;-69
2022/08/22 08:35:34;;;;;;;4.18;1.00;;;22.50;99.90;;;;;;4978553;28;20077;-70
2022/08/22 08:38:02;;;;;;;8.60;1.52;;;22.60;99.90;;;;;;4975479;28;20047;-70
2022/08/22 08:40:30;;;;;;;8.07;1.65;;;22.70;99.90;;;;;;4978391;28;20035;-70
2022/08/22 08:43:28;;;;;;;5.95;1.10;;;22.60;99.90;;;;;;4975384;28;20120;-70
2022/08/22 08:45:56;;;;;;;3.05;0.82;;;22.70;99.90;;;;;;4980048;28;20030;-69
2022/08/22 08:48:45;;;;;;;9.45;1.90;;;22.70;99.90;;;;;;4976699;28;20039;-70
2022/08/22 08:51:23;;;;;;;2.95;0.90;;;22.80;99.90;;;;;;4979546;28;20402;-70
2022/08/22 08:54:25;;;;;;;5.82;1.15;;;22.90;99.90;;;;;;4976327;28;20484;-70
2022/08/22 08:57:05;;;;;;;3.13;0.90;;;22.90;99.90;;;;;;4979441;28;20510;-70
2022/08/22 09:00:08;;;;;;;4.97;1.13;;;23.00;99.90;;;;;;4996940;28;20418;-70
2022/08/22 09:02:44;;;;;;;6.45;1.38;;;23.10;99.50;;;;;;4976150;28;20117;-69
2022/08/22 09:05:39;;;;;;;7.20;1.25;;;23.10;99.70;;;;;;4979182;28;20042;-69
2022/08/22 09:08:28;;;;;;;6.53;0.80;;;23.20;98.50;;;;;;4993462;28;20084;-70
2022/08/22 09:11:24;;;;;;;4.88;0.85;;;23.30;98.80;;;;;;4976784;28;20050;-68
2022/08/22 09:14:11;;;;;;;8.68;0.98;;;23.50;98.30;;;;;;4978628;28;20575;-69
2022/08/22 09:17:13;;;;;;;5.13;0.75;;;23.50;97.60;;;;;;4979499;28;20034;-69
2022/08/22 09:20:11;;;;;;;2.83;0.80;;;23.60;98.00;;;;;;4975619;28;20038;-70
2022/08/22 09:23:16;;;;;;;2.67;0.77;;;23.70;97.50;;;;;;4978201;28;20068;-69
2022/08/22 09:25:48;;;;;;;5.50;1.15;;;23.80;96.90;;;;;;4980464;28;20487;-70
2022/08/22 09:28:34;;;;;;;7.25;0.93;;;23.90;97.40;;;;;;4976185;28;20049;-69
2022/08/22 09:31:26;;;;;;;4.75;0.95;;;24.00;95.90;;;;;;4978435;28;20526;-71
2022/08/22 09:34:20;;;;;;;5.22;1.17;;;23.80;96.90;;;;;;4978273;28;20053;-70
2022/08/22 09:37:03;;;;;;;5.60;1.20;;;23.90;96.80;;;;;;4979164;28;20483;-71
2022/08/22 09:39:50;;;;;;;5.25;1.00;;;24.00;96.90;;;;;;4978172;28;20038;-70
2022/08/22 09:42:46;;;;;;;8.77;1.45;;;24.00;95.90;;;;;;4998727;28;20068;-69
2022/08/22 09:45:49;;;;;;;5.68;1.33;;;23.90;96.30;;;;;;4978567;28;20034;-70
2022/08/22 09:48:43;;;;;;;3.83;1.23;;;23.90;95.10;;;;;;4980722;28;20050;-70
2022/08/22 09:51:22;;;;;;;4.30;0.93;;;23.80;95.20;;;;;;4981470;28;20057;-70
2022/08/22 09:54:08;;;;;;;3.70;1.05;;;23.80;95.70;;;;;;5007435;28;20043;-70
2022/08/22 09:56:55;;;;;;;4.88;1.13;;;24.00;95.80;;;;;;4978446;28;20041;-70
2022/08/22 09:59:42;;;;;;;6.18;0.70;;;24.30;95.40;;;;;;5008001;28;20046;-69
2022/08/22 10:02:23;;;;;;;8.32;1.25;;;24.70;95.10;;;;;;4998329;28;20042;-70
2022/08/22 10:05:01;;;;;;;3.38;1.17;;;25.00;94.40;;;;;;4975773;28;20803;-70
2022/08/22 10:07:36;;;;;;;4.03;0.88;;;25.20;93.70;;;;;;4963346;28;20108;-70
2022/08/22 10:10:26;;;;;;;10.18;1.27;;;25.20;92.60;;;;;;4978380;28;20058;-68
2022/08/22 10:13:13;;;;;;;10.45;1.90;;;25.40;92.00;;;;;;5007672;28;20509;-69
2022/08/22 10:15:41;;;;;;;6.07;1.23;;;25.40;92.60;;;;;;4976327;28;20038;-70
2022/08/22 10:18:33;;;;;;;6.13;1.25;;;25.40;92.90;;;;;;4973305;28;20550;-70
2022/08/22 10:21:21;;;;;;;5.47;1.20;;;25.40;93.00;;;;;;4988943;28;20042;-71
2022/08/22 10:23:55;;;;;;;3.97;0.80;;;25.30;91.90;;;;;;4978043;28;20736;-70
2022/08/22 10:26:36;;;;;;;5.47;1.20;;;25.40;93.00;;;;;;4982754;28;20034;-69
2022/08/22 10:29:11;;;;;;;6.72;1.42;;;25.40;93.10;;;;;;4978393;28;20033;-70
2022/08/22 10:31:44;;;;;;;3.13;0.82;;;25.50;92.70;;;;;;4973411;28;20043;-70
2022/08/22 10:34:19;;;;;;;3.63;1.35;;;25.50;92.80;;;;;;5006566;28;20481;-69
2022/08/22 10:36:53;;;;;;;12.52;2.25;;;25.50;92.80;;;;;;4976255;28;20562;-69
2022/08/22 10:39:25;;;;;;;3.67;0.80;;;25.50;93.20;;;;;;5005555;28;20035;-70
2022/08/22 10:42:18;;;;;;;3.92;1.25;;;25.60;92.80;;;;;;4975881;28;20038;-70
2022/08/22 10:44:55;;;;;;;7.25;1.63;;;25.70;91.90;;;;;;5006689;28;20047;-70
2022/08/22 10:47:29;;;;;;;9.57;1.38;;;25.70;92.00;;;;;;5004963;28;20034;-70
2022/08/22 10:50:17;;;;;;;5.22;1.27;;;25.70;92.30;;;;;;4978222;28;20039;-70
2022/08/22 10:52:50;;;;;;;10.68;1.50;;;25.80;92.10;;;;;;4974686;28;20066;-69
2022/08/22 10:55:27;;;;;;;8.68;1.45;;;25.80;92.20;;;;;;4975416;28;20089;-69
2022/08/22 10:58:07;;;;;;;6.65;1.45;;;26.00;91.70;;;;;;4974298;28;20547;-69
2022/08/22 11:00:50;;;;;;;4.68;0.80;;;26.00;90.30;;;;;;4969126;28;20034;-69
2022/08/22 11:03:21;;;;;;;5.95;1.00;;;26.10;89.90;;;;;;4974675;28;20474;-71
2022/08/22 11:05:48;;;;;;;3.90;1.00;;;26.20;90.40;;;;;;4974993;28;20029;-70
2022/08/22 11:08:51;;;;;;;4.93;1.27;;;26.20;89.50;;;;;;4974998;28;20522;-70
2022/08/22 11:11:31;;;;;;;4.00;0.98;;;26.00;90.10;;;;;;4998418;28;20042;-69
2022/08/22 11:14:29;;;;;;;6.85;1.55;;;25.90;91.10;;;;;;5004071;28;20043;-70
2022/08/22 11:17:13;;;;;;;5.63;1.38;;;26.00;91.20;;;;;;4978160;28;20039;-68
2022/08/22 11:19:51;;;;;;;4.40;1.05;;;26.10;89.90;;;;;;4981502;28;20061;-71
2022/08/22 11:22:45;;;;;;;7.90;1.70;;;26.00;90.20;;;;;;4979545;28;20535;-69
2022/08/22 11:25:32;;;;;;;8.45;1.67;;;25.80;90.40;;;;;;4983944;28;20043;-70
2022/08/22 11:28:00;;;;;;;7.30;1.30;;;25.60;90.40;;;;;;4981422;28;20216;-70
2022/08/22 11:30:54;;;;;;;4.78;1.20;;;25.60;91.80;;;;;;4977769;28;20050;-69
2022/08/22 11:33:25;;;;;;;5.68;1.67;;;25.70;91.40;;;;;;4977861;28;20050;-70
2022/08/22 11:36:25;;;;;;;6.70;1.20;;;25.80;90.90;;;;;;4977929;28;20609;-71
2022/08/22 11:39:11;;;;;;;2.77;0.87;;;25.90;91.40;;;;;;5011321;28;20417;-71
2022/08/22 11:42:05;;;;;;;6.80;1.10;;;25.90;91.10;;;;;;4980661;28;20308;-69
2022/08/22 11:44:50;;;;;;;6.25;1.30;;;25.90;90.40;;;;;;4980557;28;20050;-71
2022/08/22 11:47:20;;;;;;;4.30;1.02;;;26.10;91.00;;;;;;4977673;28;20104;-69
2022/08/22 11:50:27;;;;;;;5.07;0.95;;;26.10;89.90;;;;;;4976442;28;20075;-70
2022/08/22 11:53:20;;;;;;;4.05;1.15;;;26.00;89.80;;;;;;4979106;28;20054;-71
2022/08/22 11:56:18;;;;;;;10.40;1.08;;;26.00;90.00;;;;;;4981062;28;20380;-71
2022/08/22 11:58:54;;;;;;;4.40;1.25;;;25.80;90.00;;;;;;4983062;28;20042;-70
2022/08/22 12:01:30;;;;;;;4.13;1.10;;;25.60;90.20;;;;;;4979684;28;20301;-70
2022/08/22 12:04:17;;;;;;;4.43;1.63;;;25.60;90.10;;;;;;4982809;28;20030;-71
2022/08/22 12:06:45;;;;;;;5.13;0.98;;;25.50;88.90;;;;;;4980277;28;20031;-70
2022/08/22 12:09:36;;;;;;;8.73;1.27;;;25.40;88.70;;;;;;5008891;28;20470;-71
2022/08/22 12:12:19;;;;;;;7.03;1.83;;;25.40;88.10;;;;;;4999692;28;20046;-71
2022/08/22 12:14:50;;;;;;;4.18;0.90;;;25.50;87.90;;;;;;4979430;28;20098;-71
2022/08/22 12:17:29;;;;;;;4.05;0.88;;;25.50;87.50;;;;;;4974867;28;20038;-70
2022/08/22 12:20:24;;;;;;;4.03;1.10;;;25.40;87.40;;;;;;4993185;28;20053;-71
2022/08/22 12:23:09;;;;;;;8.80;0.98;;;25.30;86.90;;;;;;4985676;28;20154;-70
2022/08/22 12:25:49;;;;;;;6.53;1.70;;;25.20;87.40;;;;;;5000278;28;20121;-70
2022/08/22 12:28:36;;;;;;;3.45;0.95;;;25.20;87.30;;;;;;4978823;28;20039;-71
2022/08/22 12:31:07;;;;;;;5.50;1.50;;;25.10;89.30;;;;;;5008510;28;20050;-70
2022/08/22 12:34:06;;;;;;;5.07;1.13;;;25.10;88.20;;;;;;4981246;28;20054;-69
2022/08/22 12:36:46;;;;;;;4.30;1.13;;;25.00;88.70;;;;;;4979723;28;20042;-69
2022/08/22 12:39:26;;;;;;;6.38;1.30;;;24.90;89.50;;;;;;4975639;28;20451;-72
2022/08/22 12:42:07;;;;;;;6.68;1.02;;;25.00;87.50;;;;;;4975190;28;20035;-71
2022/08/22 12:45:04;;;;;;;5.85;0.88;;;24.90;87.50;;;;;;5008862;28;20045;-69
2022/08/22 12:47:42;;;;;;;5.05;0.77;;;24.90;87.60;;;;;;4979276;28;20117;-71
2022/08/22 12:51:22;;;;;;;3.08;0.90;;;25.00;87.10;;;;;;4977914;28;20106;-70
2022/08/22 12:54:13;;;;;;;8.38;2.58;;;25.00;86.70;;;;;;4943207;28;20083;-71
2022/08/22 12:56:54;;;;;;;4.25;0.60;;;25.00;85.00;;;;;;4940640;28;20500;-71
2022/08/22 12:59:28;;;;;;;2.40;0.60;;;25.00;85.80;;;;;;4968185;28;20503;-70
2022/08/22 13:01:58;;;;;;;6.15;0.90;;;25.00;87.10;;;;;;4983295;28;20034;-72
2022/08/22 13:04:32;;;;;;;;;;;25.00;85.30;;;;;;4975974;28;20038;-71
2022/08/22 13:07:18;;;;;;;2.72;0.90;;;25.00;86.90;;;;;;4976460;28;19929;-71
2022/08/22 13:09:56;;;;;;;3.92;0.70;;;25.10;85.30;;;;;;4975879;28;20141;-71
2022/08/22 13:12:27;;;;;;;5.53;0.73;;;25.20;85.80;;;;;;4978368;28;20054;-70
2022/08/22 13:15:19;;;;;;;9.05;1.55;;;25.30;85.60;;;;;;4976187;28;20483;-71
2022/08/22 13:17:46;;;;;;;1.98;0.75;;;25.30;86.30;;;;;;4975706;28;20037;-71
2022/08/22 13:20:24;;;;;;;2.92;0.70;;;25.40;86.80;;;;;;4978254;28;20392;-70
2022/08/22 13:22:51;;;;;;;3.53;0.90;;;25.60;86.20;;;;;;4978974;28;20049;-71
2022/08/22 13:25:24;;;;;;;5.82;0.93;;;25.60;87.30;;;;;;4978882;28;20035;-71
2022/08/22 13:28:10;;;;;;;5.60;1.13;;;25.60;87.40;;;;;;4979028;28;20401;-70
2022/08/22 13:30:39;;;;;;;3.22;0.90;;;25.70;88.00;;;;;;4976016;28;20034;-69
2022/08/22 13:33:12;;;;;;;8.38;1.45;;;25.70;86.30;;;;;;4975084;28;20089;-71
2022/08/22 13:35:47;;;;;;;2.80;1.10;;;25.60;84.20;;;;;;4975755;28;20042;-70
2022/08/22 13:38:36;;;;;;;13.02;1.38;;;25.60;84.50;;;;;;4976675;28;20036;-71
2022/08/22 13:41:02;;;;;;;7.07;1.10;;;25.50;83.80;;;;;;4978550;28;20522;-70
2022/08/22 13:43:33;;;;;;;6.00;1.50;;;25.40;84.40;;;;;;4973845;28;20027;-72
2022/08/22 13:46:03;;;;;;;2.08;0.90;;;25.50;84.40;;;;;;4976889;28;20054;-72
2022/08/22 13:48:51;;;;;;;2.30;0.63;;;25.40;85.70;;;;;;4976707;28;20026;-71
2022/08/22 13:51:32;;;;;;;5.25;0.85;;;25.40;86.10;;;;;;4978383;28;20125;-68
2022/08/22 13:54:00;;;;;;;3.22;0.73;;;25.40;86.70;;;;;;4998301;28;20050;-70
2022/08/22 13:56:39;;;;;;;5.93;1.48;;;25.40;87.70;;;;;;4976954;28;20042;-71
2022/08/22 13:59:16;;;;;;;5.82;1.25;;;25.50;87.60;;;;;;4974274;28;20048;-71
2022/08/22 14:02:02;;;;;;;6.75;1.30;;;25.50;88.40;;;;;;4976512;28;20058;-70
2022/08/22 14:04:31;;;;;;;4.57;1.58;;;25.60;88.10;;;;;;5006528;28;20038;-70